createdAt,value
2023-03-16T00:00:14.727Z,6.07
2023-03-16T00:02:53.830Z,6.82
2023-03-16T00:05:43.073Z,6.05
2023-03-16T00:08:21.232Z,6.30
2023-03-16T00:11:09.910Z,6.07
2023-03-16T00:17:25.261Z,6.00
2023-03-16T00:20:14.488Z,6.40
2023-03-16T00:23:31.737Z,6.25
2023-03-16T00:26:04.283Z,6.25
2023-03-16T00:28:35.726Z,6.45
2023-03-16T00:31:09.033Z,6.47
2023-03-16T00:33:38.833Z,7.03
2023-03-16T00:36:12.495Z,6.47
2023-03-16T00:38:45.786Z,5.28
2023-03-16T00:41:22.448Z,6.97
2023-03-16T00:43:55.707Z,6.35
2023-03-16T00:46:37.530Z,6.35
2023-03-16T00:49:07.229Z,5.97
2023-03-16T00:51:38.239Z,7.25
2023-03-16T00:54:10.708Z,7.80
2023-03-16T00:56:44.989Z,6.30
2023-03-16T00:59:22.811Z,6.28
2023-03-16T01:01:52.162Z,6.30
2023-03-16T01:06:47.473Z,6.55
2023-03-16T01:09:15.186Z,6.85
2023-03-16T01:11:46.506Z,6.78
2023-03-16T01:14:13.781Z,6.90
2023-03-16T01:16:41.299Z,7.20
2023-03-16T01:19:08.664Z,7.00
2023-03-16T01:21:38.290Z,7.50
2023-03-16T01:24:06.071Z,6.82
2023-03-16T01:26:34.120Z,6.47
2023-03-16T01:29:02.355Z,6.45
2023-03-16T01:31:29.890Z,7.60
2023-03-16T01:33:57.452Z,6.35
2023-03-16T01:36:28.439Z,6.70
2023-03-16T01:39:02.474Z,7.85
2023-03-16T01:41:37.023Z,7.30
2023-03-16T01:44:04.770Z,7.78
2023-03-16T01:46:32.756Z,7.55
2023-03-16T01:49:05.652Z,7.55
2023-03-16T01:51:38.191Z,7.00
2023-03-16T01:54:14.789Z,6.80
2023-03-16T01:56:55.526Z,6.65
2023-03-16T01:59:24.954Z,7.63
2023-03-16T02:04:27.396Z,7.32
2023-03-16T02:06:59.775Z,6.55
2023-03-16T02:09:27.562Z,7.10
2023-03-16T02:11:55.401Z,7.43
2023-03-16T02:14:24.883Z,7.05
2023-03-16T02:16:52.853Z,7.22
2023-03-16T02:19:26.680Z,6.85
2023-03-16T02:22:02.369Z,7.00
2023-03-16T02:24:31.089Z,6.82
2023-03-16T02:27:04.534Z,5.50
2023-03-16T02:29:44.161Z,6.45
2023-03-16T02:32:12.620Z,6.43
2023-03-16T02:34:40.074Z,8.63
2023-03-16T02:37:08.190Z,7.00
2023-03-16T02:39:35.578Z,6.90
2023-03-16T02:42:05.449Z,7.30
2023-03-16T02:44:35.704Z,7.00
2023-03-16T02:47:08.002Z,7.55
2023-03-16T02:49:38.295Z,5.65
2023-03-16T02:52:09.171Z,6.28
2023-03-16T02:54:36.601Z,7.97
2023-03-16T02:57:04.420Z,6.65
2023-03-16T02:59:32.953Z,6.30
2023-03-16T03:02:00.415Z,6.55
2023-03-16T03:04:27.967Z,6.88
2023-03-16T03:06:55.342Z,6.30
2023-03-16T03:09:22.818Z,7.18
2023-03-16T03:11:53.871Z,6.63
2023-03-16T03:14:22.215Z,5.18
2023-03-16T03:16:52.226Z,5.80
2023-03-16T03:19:19.571Z,6.70
2023-03-16T03:21:46.907Z,7.40
2023-03-16T03:24:14.174Z,6.63
2023-03-16T03:26:41.572Z,7.57
2023-03-16T03:29:15.961Z,6.75
2023-03-16T03:31:43.714Z,7.15
2023-03-16T03:34:11.713Z,6.20
2023-03-16T03:36:39.131Z,6.20
2023-03-16T03:39:07.037Z,6.75
2023-03-16T03:41:36.066Z,4.65
2023-03-16T03:46:32.380Z,6.93
2023-03-16T03:49:03.720Z,7.03
2023-03-16T03:51:33.755Z,6.90
2023-03-16T03:54:07.944Z,5.32
2023-03-16T03:56:44.353Z,6.45
2023-03-16T03:59:15.627Z,6.80
2023-03-16T04:02:01.641Z,6.43
2023-03-16T04:04:39.225Z,7.60
2023-03-16T04:07:06.689Z,6.57
2023-03-16T04:09:36.473Z,6.65
2023-03-16T04:12:04.969Z,6.63
2023-03-16T04:14:34.673Z,6.43
2023-03-16T04:17:05.516Z,6.82
2023-03-16T04:19:35.574Z,6.97
2023-03-16T04:24:34.347Z,6.22
2023-03-16T04:27:02.833Z,6.40
2023-03-16T04:29:30.447Z,6.63
2023-03-16T04:31:58.788Z,4.88
2023-03-16T04:34:28.419Z,6.10
2023-03-16T04:36:59.988Z,6.45
2023-03-16T04:39:27.456Z,6.35
2023-03-16T04:41:55.503Z,5.60
2023-03-16T04:44:25.927Z,5.55
2023-03-16T04:46:53.930Z,5.55
2023-03-16T04:49:23.190Z,6.05
2023-03-16T04:51:50.937Z,5.15
2023-03-16T04:54:20.331Z,6.07
2023-03-16T04:56:48.772Z,5.55
2023-03-16T04:59:36.387Z,5.07
2023-03-16T05:02:12.516Z,5.38
2023-03-16T05:04:39.977Z,5.78
2023-03-16T05:07:11.508Z,5.57
2023-03-16T05:09:42.284Z,5.20
2023-03-16T05:12:09.859Z,5.53
2023-03-16T05:14:38.153Z,3.80
2023-03-16T05:17:19.637Z,5.03
2023-03-16T05:19:47.721Z,5.43
2023-03-16T05:22:17.259Z,5.10
2023-03-16T05:25:05.418Z,4.68
2023-03-16T05:27:34.269Z,5.00
2023-03-16T05:30:03.872Z,4.60
2023-03-16T05:32:32.795Z,5.22
2023-03-16T05:35:00.290Z,5.15
2023-03-16T05:37:27.782Z,4.80
2023-03-16T05:39:57.610Z,4.93
2023-03-16T05:42:29.052Z,4.35
2023-03-16T05:45:00.411Z,3.65
2023-03-16T05:47:36.602Z,5.03
2023-03-16T05:50:06.253Z,5.03
2023-03-16T05:52:38.784Z,4.45
2023-03-16T05:55:14.698Z,4.47
2023-03-16T05:57:44.326Z,4.82
2023-03-16T06:00:16.873Z,4.93
2023-03-16T06:02:51.811Z,6.00
2023-03-16T06:05:21.797Z,5.15
2023-03-16T06:07:50.856Z,4.55
2023-03-16T06:10:18.797Z,4.95
2023-03-16T06:12:46.232Z,5.72
2023-03-16T06:15:14.035Z,5.45
2023-03-16T06:17:41.996Z,5.70
2023-03-16T06:20:11.346Z,6.18
2023-03-16T06:22:41.245Z,6.53
2023-03-16T06:25:09.993Z,5.70
2023-03-16T06:27:37.570Z,5.38
2023-03-16T06:30:12.005Z,4.93
2023-03-16T06:32:42.214Z,5.25
2023-03-16T06:35:10.371Z,6.60
2023-03-16T06:37:41.237Z,6.57
2023-03-16T06:40:23.264Z,5.47
2023-03-16T06:42:51.452Z,4.97
2023-03-16T06:45:22.126Z,5.60
2023-03-16T06:47:50.436Z,5.68
2023-03-16T06:50:17.902Z,5.82
2023-03-16T06:52:45.301Z,6.70
2023-03-16T06:55:14.378Z,4.22
2023-03-16T06:57:45.413Z,6.15
2023-03-16T07:00:15.367Z,5.00
2023-03-16T07:02:43.949Z,5.75
2023-03-16T07:05:13.804Z,5.78
2023-03-16T07:07:42.848Z,5.22
2023-03-16T07:10:13.960Z,4.03
2023-03-16T07:12:42.379Z,6.07
2023-03-16T07:15:10.836Z,4.53
2023-03-16T07:17:39.224Z,5.05
2023-03-16T07:20:10.650Z,4.70
2023-03-16T07:22:39.524Z,5.40
2023-03-16T07:25:08.626Z,4.40
2023-03-16T07:27:35.947Z,4.68
2023-03-16T07:30:06.789Z,4.50
2023-03-16T07:32:37.002Z,4.70
2023-03-16T07:35:05.366Z,4.22
2023-03-16T07:37:35.062Z,5.88
2023-03-16T07:40:05.225Z,5.15
2023-03-16T07:42:32.607Z,4.60
2023-03-16T07:45:06.120Z,4.75
2023-03-16T07:47:34.422Z,5.35
2023-03-16T07:50:11.278Z,5.03
2023-03-16T07:52:42.304Z,3.67
2023-03-16T07:55:09.685Z,4.63
2023-03-16T07:57:39.320Z,4.70
2023-03-16T08:00:07.849Z,4.25
2023-03-16T08:02:40.564Z,3.40
2023-03-16T08:05:10.985Z,5.25
2023-03-16T08:07:41.274Z,4.32
2023-03-16T08:10:16.683Z,4.05
2023-03-16T08:12:51.640Z,4.63
2023-03-16T08:15:19.777Z,4.43
2023-03-16T08:17:51.490Z,3.72
2023-03-16T08:20:24.672Z,3.40
2023-03-16T08:22:53.253Z,4.07
2023-03-16T08:25:25.751Z,4.97
2023-03-16T08:28:00.117Z,3.90
2023-03-16T08:30:27.696Z,5.35
2023-03-16T08:33:12.134Z,4.63
2023-03-16T08:35:42.752Z,4.10
2023-03-16T08:38:10.203Z,4.72
2023-03-16T08:40:37.665Z,4.00
2023-03-16T08:43:05.164Z,3.42
2023-03-16T08:45:33.812Z,4.20
2023-03-16T08:48:01.519Z,4.03
2023-03-16T08:50:30.233Z,3.95
2023-03-16T08:52:57.804Z,4.35
2023-03-16T08:55:25.221Z,4.63
2023-03-16T08:57:52.694Z,3.80
2023-03-16T09:00:20.484Z,3.10
2023-03-16T09:02:48.050Z,4.10
2023-03-16T09:05:16.065Z,4.30
2023-03-16T09:07:43.799Z,3.75
2023-03-16T09:10:16.339Z,3.40
2023-03-16T09:12:44.404Z,4.60
2023-03-16T09:15:14.723Z,3.67
2023-03-16T09:17:43.122Z,4.43
2023-03-16T09:20:29.996Z,4.97
2023-03-16T09:22:58.264Z,3.65
2023-03-16T09:25:26.147Z,3.47
2023-03-16T09:27:53.869Z,5.03
2023-03-16T09:30:21.336Z,3.42
2023-03-16T09:32:49.451Z,3.92
2023-03-16T09:35:16.909Z,3.20
2023-03-16T09:38:01.095Z,4.28
2023-03-16T09:40:32.725Z,3.85
2023-03-16T09:43:00.466Z,3.13
2023-03-16T09:45:36.591Z,3.10
2023-03-16T09:48:05.797Z,4.18
2023-03-16T09:50:48.272Z,3.30
2023-03-16T09:53:36.121Z,2.80
2023-03-16T09:56:32.946Z,3.03
2023-03-16T09:59:00.504Z,3.50
2023-03-16T10:01:38.915Z,3.88
2023-03-16T10:04:29.575Z,2.70
2023-03-16T10:07:12.667Z,3.15
2023-03-16T10:09:49.163Z,5.03
2023-03-16T10:12:16.788Z,3.30
2023-03-16T10:14:50.122Z,3.17
2023-03-16T10:17:24.939Z,3.22
2023-03-16T10:19:54.165Z,2.33
2023-03-16T10:22:22.786Z,4.03
2023-03-16T10:25:02.220Z,3.40
2023-03-16T10:27:31.109Z,3.05
2023-03-16T10:29:58.591Z,2.20
2023-03-16T10:32:29.538Z,4.07
2023-03-16T10:34:59.184Z,3.17
2023-03-16T10:37:28.307Z,2.53
2023-03-16T10:39:56.514Z,3.28
2023-03-16T10:42:25.021Z,2.80
2023-03-16T10:45:01.038Z,2.50
2023-03-16T10:47:31.506Z,3.13
2023-03-16T10:49:59.002Z,3.78
2023-03-16T10:52:26.300Z,2.78
2023-03-16T10:54:55.751Z,2.80
2023-03-16T10:57:33.548Z,3.00
2023-03-16T11:00:16.985Z,2.83
2023-03-16T11:02:44.440Z,2.80
2023-03-16T11:05:17.897Z,2.78
2023-03-16T11:08:12.039Z,2.63
2023-03-16T11:10:54.954Z,2.83
2023-03-16T11:13:24.630Z,2.53
2023-03-16T11:16:12.928Z,2.60
2023-03-16T11:18:51.478Z,2.40
2023-03-16T11:21:38.654Z,2.25
2023-03-16T11:24:07.251Z,2.33
2023-03-16T11:26:36.397Z,2.17
2023-03-16T11:29:27.104Z,2.00
2023-03-16T11:31:56.794Z,2.08
2023-03-16T11:34:29.314Z,1.73
2023-03-16T11:37:09.812Z,2.15
2023-03-16T11:39:47.352Z,2.17
2023-03-16T11:42:20.753Z,1.83
2023-03-16T11:45:01.640Z,2.25
2023-03-16T11:47:53.215Z,2.35
2023-03-16T11:50:20.693Z,2.00
2023-03-16T11:52:54.392Z,1.95
2023-03-16T11:55:21.658Z,1.98
2023-03-16T11:57:51.314Z,1.73
2023-03-16T12:00:28.187Z,1.60
2023-03-16T12:03:14.813Z,2.47
2023-03-16T12:06:13.645Z,1.75
2023-03-16T12:09:06.889Z,2.08
2023-03-16T12:11:43.592Z,2.10
2023-03-16T12:14:25.311Z,2.05
2023-03-16T12:16:55.943Z,1.83
2023-03-16T12:19:30.568Z,1.70
2023-03-16T12:22:02.293Z,1.40
2023-03-16T12:24:32.587Z,1.98
2023-03-16T12:27:00.341Z,1.67
2023-03-16T12:29:36.808Z,1.52
2023-03-16T12:32:10.476Z,1.88
2023-03-16T12:34:42.071Z,1.73
2023-03-16T12:37:13.097Z,1.92
2023-03-16T12:40:07.878Z,2.00
2023-03-16T12:42:38.701Z,1.45
2023-03-16T12:45:27.039Z,1.55
2023-03-16T12:48:01.915Z,1.50
2023-03-16T12:50:29.228Z,2.10
2023-03-16T12:52:57.569Z,1.40
2023-03-16T12:55:28.071Z,2.63
2023-03-16T12:58:03.706Z,2.90
2023-03-16T13:00:36.214Z,1.67
2023-03-16T13:03:04.803Z,1.83
2023-03-16T13:05:34.912Z,1.95
2023-03-16T13:08:09.018Z,1.42
2023-03-16T13:10:37.590Z,1.73
2023-03-16T13:13:13.391Z,1.23
2023-03-16T13:15:40.946Z,1.48
2023-03-16T13:18:11.424Z,2.00
2023-03-16T13:20:47.739Z,1.63
2023-03-16T13:23:22.278Z,1.35
2023-03-16T13:26:01.220Z,1.67
2023-03-16T13:28:37.656Z,1.15
2023-03-16T13:31:06.306Z,1.20
2023-03-16T13:33:38.270Z,1.70
2023-03-16T13:36:06.533Z,1.45
2023-03-16T13:38:34.035Z,1.23
2023-03-16T13:41:12.476Z,1.88
2023-03-16T13:43:42.575Z,1.27
2023-03-16T13:46:17.430Z,1.33
2023-03-16T13:48:45.244Z,1.38
2023-03-16T13:51:18.072Z,1.50
2023-03-16T13:53:45.795Z,1.80
2023-03-16T13:56:14.905Z,1.80
2023-03-16T13:58:44.905Z,1.40
2023-03-16T14:01:16.657Z,1.38
2023-03-16T14:03:45.349Z,1.25
2023-03-16T14:06:26.683Z,1.50
2023-03-16T14:08:58.166Z,1.95
2023-03-16T14:11:27.042Z,1.60
2023-03-16T14:13:55.478Z,1.48
2023-03-16T14:16:24.418Z,1.45
2023-03-16T14:19:13.634Z,1.88
2023-03-16T14:21:46.423Z,1.52
2023-03-16T14:24:30.909Z,1.25
2023-03-16T14:26:58.454Z,1.52
2023-03-16T14:29:33.093Z,1.48
2023-03-16T14:32:00.788Z,0.95
2023-03-16T14:34:32.662Z,1.30
2023-03-16T14:37:19.119Z,1.33
2023-03-16T14:39:47.447Z,1.77
2023-03-16T14:42:25.856Z,1.50
2023-03-16T14:44:53.284Z,1.52
2023-03-16T14:47:23.121Z,1.52
2023-03-16T14:49:50.495Z,1.50
2023-03-16T14:52:27.864Z,1.13
2023-03-16T14:54:55.827Z,1.30
2023-03-16T14:57:23.442Z,1.13
2023-03-16T14:59:50.843Z,1.30
2023-03-16T15:02:24.051Z,1.15
2023-03-16T15:04:51.927Z,1.73
2023-03-16T15:07:22.238Z,1.73
2023-03-16T15:09:50.675Z,1.15
2023-03-16T15:12:19.774Z,1.02
2023-03-16T15:15:06.364Z,1.00
2023-03-16T15:17:33.713Z,1.10
2023-03-16T15:20:01.410Z,1.13
2023-03-16T15:22:31.487Z,1.50
2023-03-16T15:25:00.242Z,1.30
2023-03-16T15:27:40.943Z,2.28
2023-03-16T15:30:36.393Z,1.20
2023-03-16T15:33:03.758Z,1.38
2023-03-16T15:35:31.379Z,1.30
2023-03-16T15:37:58.828Z,1.00
2023-03-16T15:40:27.612Z,1.27
2023-03-16T15:42:55.646Z,1.23
2023-03-16T15:45:23.706Z,1.70
2023-03-16T15:47:53.212Z,1.15
2023-03-16T15:50:22.155Z,1.33
2023-03-16T15:52:54.252Z,0.95
2023-03-16T15:55:24.248Z,1.08
2023-03-16T15:57:55.882Z,1.00
2023-03-16T16:00:31.796Z,1.42
2023-03-16T16:02:59.614Z,1.30
2023-03-16T16:05:27.467Z,1.40
2023-03-16T16:07:55.420Z,1.35
2023-03-16T16:10:23.574Z,1.45
2023-03-16T16:12:52.188Z,1.23
2023-03-16T16:15:21.625Z,1.27
2023-03-16T16:18:13.328Z,1.42
2023-03-16T16:20:38.033Z,1.10
2023-03-16T16:23:05.573Z,0.85
2023-03-16T16:25:35.410Z,1.55
2023-03-16T16:28:02.925Z,1.00
2023-03-16T16:30:31.984Z,2.45
2023-03-16T16:32:59.475Z,1.30
2023-03-16T16:35:28.544Z,1.52
2023-03-16T16:40:25.885Z,1.80
2023-03-16T16:42:54.037Z,0.82
2023-03-16T16:45:22.866Z,1.33
2023-03-16T16:47:52.315Z,1.55
2023-03-16T16:50:25.113Z,1.42
2023-03-16T16:52:53.113Z,2.30
2023-03-16T16:55:22.333Z,1.60
2023-03-16T17:00:18.579Z,1.40
2023-03-16T17:02:47.282Z,1.33
2023-03-16T17:05:22.358Z,1.60
2023-03-16T17:07:50.369Z,1.45
2023-03-16T17:10:19.257Z,1.75
2023-03-16T17:12:46.783Z,1.80
2023-03-16T17:15:20.703Z,1.52
2023-03-16T17:17:48.082Z,1.20
2023-03-16T17:20:25.646Z,1.70
2023-03-16T17:22:54.688Z,1.92
2023-03-16T17:25:23.162Z,2.20
2023-03-16T17:27:52.597Z,1.63
2023-03-16T17:30:25.843Z,2.13
2023-03-16T17:32:53.811Z,5.10
2023-03-16T17:35:21.590Z,3.53
2023-03-16T17:37:48.947Z,1.80
2023-03-16T17:40:20.818Z,8.50
2023-03-16T17:42:49.194Z,4.57
2023-03-16T17:45:18.291Z,9.57
2023-03-16T17:47:46.316Z,6.95
2023-03-16T17:50:25.203Z,10.35
2023-03-16T17:52:53.321Z,6.80
2023-03-16T17:55:23.920Z,3.40
2023-03-16T17:57:55.291Z,4.85
2023-03-16T18:00:24.472Z,3.70
2023-03-16T18:05:23.738Z,2.53
2023-03-16T18:07:51.807Z,3.42
2023-03-16T18:10:21.020Z,4.25
2023-03-16T18:12:49.901Z,3.33
2023-03-16T18:15:18.728Z,4.15
2023-03-16T18:17:46.566Z,4.80
2023-03-16T18:20:21.997Z,3.63
2023-03-16T18:22:50.469Z,2.95
2023-03-16T18:25:39.167Z,3.40
2023-03-16T18:28:07.691Z,3.88
2023-03-16T18:30:35.695Z,4.07
2023-03-16T18:33:04.029Z,3.75
2023-03-16T18:35:32.208Z,4.27
2023-03-16T18:37:59.946Z,4.83
2023-03-16T18:40:29.481Z,3.53
2023-03-16T18:42:56.999Z,3.67
2023-03-16T18:45:25.734Z,3.33
2023-03-16T18:47:57.992Z,3.63
2023-03-16T18:50:30.267Z,1.95
2023-03-16T18:52:58.326Z,2.67
2023-03-16T18:55:27.232Z,1.80
2023-03-16T18:57:56.636Z,2.17
2023-03-16T19:00:27.183Z,3.55
2023-03-16T19:02:56.150Z,2.85
2023-03-16T19:05:27.590Z,3.00
2023-03-16T19:07:55.214Z,2.45
2023-03-16T19:10:24.384Z,2.70
2023-03-16T19:12:52.534Z,2.67
2023-03-16T19:15:19.937Z,2.88
2023-03-16T19:17:47.816Z,2.45
2023-03-16T19:20:16.633Z,3.00
2023-03-16T19:22:46.024Z,3.15
2023-03-16T19:25:21.123Z,2.65
2023-03-16T19:27:48.676Z,3.10
2023-03-16T19:30:23.670Z,2.55
2023-03-16T19:32:52.235Z,2.78
2023-03-16T19:35:20.701Z,2.85
2023-03-16T19:37:48.231Z,2.37
2023-03-16T19:40:18.047Z,2.50
2023-03-16T19:42:46.312Z,2.28
2023-03-16T19:45:18.279Z,2.72
2023-03-16T19:47:46.344Z,2.50
2023-03-16T19:50:18.138Z,3.00
2023-03-16T19:52:46.330Z,2.78
2023-03-16T19:55:17.992Z,2.33
2023-03-16T19:57:46.474Z,2.42
2023-03-16T20:00:18.804Z,2.53
2023-03-16T20:02:46.404Z,2.90
2023-03-16T20:05:18.114Z,2.45
2023-03-16T20:07:45.747Z,2.92
2023-03-16T20:10:32.791Z,2.33
2023-03-16T20:13:01.664Z,2.70
2023-03-16T20:15:32.281Z,5.20
2023-03-16T20:18:00.113Z,3.38
2023-03-16T20:20:29.061Z,3.20
2023-03-16T20:22:59.586Z,2.58
2023-03-16T20:25:33.200Z,3.00
2023-03-16T20:28:02.130Z,2.67
2023-03-16T20:30:30.257Z,3.13
2023-03-16T20:32:57.794Z,3.15
2023-03-16T20:35:28.407Z,2.85
2023-03-16T20:37:56.317Z,3.25
2023-03-16T20:40:23.977Z,2.92
2023-03-16T20:42:52.588Z,3.17
2023-03-16T20:45:20.072Z,2.70
2023-03-16T20:47:47.898Z,2.95
2023-03-16T20:50:20.021Z,2.97
2023-03-16T20:52:48.392Z,3.03
2023-03-16T20:55:17.098Z,3.40
2023-03-16T20:57:46.324Z,3.17
2023-03-16T21:00:26.758Z,3.10
2023-03-16T21:02:54.926Z,3.38
2023-03-16T21:05:22.589Z,3.25
2023-03-16T21:07:50.370Z,3.00
2023-03-16T21:10:22.331Z,3.42
2023-03-16T21:12:54.480Z,4.40
2023-03-16T21:15:30.049Z,3.63
2023-03-16T21:18:07.950Z,3.40
2023-03-16T21:20:36.620Z,2.95
2023-03-16T21:23:04.365Z,3.50
2023-03-16T21:25:36.905Z,3.28
2023-03-16T21:28:05.101Z,3.38
2023-03-16T21:30:34.332Z,3.67
2023-03-16T21:33:02.182Z,3.85
2023-03-16T21:35:33.676Z,3.28
2023-03-16T21:38:02.418Z,3.42
2023-03-16T21:40:30.001Z,2.92
2023-03-16T21:42:57.334Z,2.85
2023-03-16T21:45:25.531Z,3.50
2023-03-16T21:47:53.063Z,3.00
2023-03-16T21:50:22.356Z,3.28
2023-03-16T21:55:23.600Z,3.42
2023-03-16T21:57:51.946Z,3.63
2023-03-16T22:00:25.754Z,3.50
2023-03-16T22:02:54.985Z,4.82
2023-03-16T22:07:49.802Z,2.92
2023-03-16T22:10:17.422Z,3.00
2023-03-16T22:12:44.812Z,3.08
2023-03-16T22:15:12.522Z,3.33
2023-03-16T22:17:40.371Z,2.95
2023-03-16T22:20:18.876Z,3.55
2023-03-16T22:22:46.351Z,3.90
2023-03-16T22:25:18.858Z,2.95
2023-03-16T22:27:47.473Z,3.05
2023-03-16T22:30:19.671Z,5.47
2023-03-16T22:32:48.998Z,3.90
2023-03-16T22:35:24.208Z,3.53
2023-03-16T22:37:51.689Z,3.97
2023-03-16T22:40:19.729Z,3.42
2023-03-16T22:42:48.283Z,2.90
2023-03-16T22:45:22.618Z,3.50
2023-03-16T22:47:50.560Z,3.08
2023-03-16T22:50:18.408Z,3.67
2023-03-16T22:52:47.357Z,3.22
2023-03-16T22:55:23.050Z,3.70
2023-03-16T22:57:52.106Z,2.97
2023-03-16T23:00:21.468Z,3.47
2023-03-16T23:05:24.608Z,3.10
2023-03-16T23:07:53.097Z,3.53
2023-03-16T23:10:22.873Z,3.38
2023-03-16T23:12:50.989Z,2.92
2023-03-16T23:15:20.690Z,3.30
2023-03-16T23:17:48.751Z,3.45
2023-03-16T23:20:24.135Z,3.53
2023-03-16T23:22:52.817Z,3.30
2023-03-16T23:25:20.852Z,3.20
2023-03-16T23:27:48.310Z,3.22
2023-03-16T23:30:16.766Z,2.80
2023-03-16T23:32:44.610Z,3.85
2023-03-16T23:35:20.404Z,3.60
2023-03-16T23:37:48.312Z,4.68
2023-03-16T23:40:15.865Z,3.30
2023-03-16T23:42:43.775Z,3.00
2023-03-16T23:45:15.009Z,3.90
2023-03-16T23:47:42.392Z,3.67
2023-03-16T23:50:12.531Z,3.42
2023-03-16T23:52:39.882Z,3.53
2023-03-16T23:55:10.933Z,3.35
2023-03-16T23:57:38.612Z,3.83
